createdAt,value
2022-12-22T00:00:55.071Z,30.00
2022-12-22T00:06:15.651Z,36.30
2022-12-22T00:11:36.306Z,27.60
2022-12-22T00:16:58.724Z,29.70
2022-12-22T00:22:21.549Z,33.80
2022-12-22T00:27:48.733Z,30.60
2022-12-22T00:33:12.846Z,25.10
2022-12-22T00:38:39.417Z,31.50
2022-12-22T00:44:00.212Z,34.00
2022-12-22T00:49:21.159Z,30.70
2022-12-22T00:54:42.249Z,30.40
2022-12-22T01:00:03.029Z,30.80
2022-12-22T01:05:23.613Z,25.20
2022-12-22T01:10:45.442Z,31.30
2022-12-22T01:16:06.178Z,29.90
2022-12-22T01:21:28.332Z,29.80
2022-12-22T01:26:49.360Z,34.40
2022-12-22T01:32:10.478Z,35.50
2022-12-22T01:37:31.134Z,36.30
2022-12-22T01:42:53.269Z,35.50
2022-12-22T01:48:13.981Z,27.00
2022-12-22T01:53:38.981Z,22.00
2022-12-22T01:59:03.180Z,23.50
2022-12-22T02:04:24.743Z,21.00
2022-12-22T02:10:00.835Z,24.70
2022-12-22T02:15:44.390Z,22.80
2022-12-22T02:21:23.464Z,21.60
2022-12-22T02:26:54.443Z,20.20
2022-12-22T02:32:16.272Z,23.90
2022-12-22T02:37:56.681Z,25.70
2022-12-22T02:43:32.434Z,20.50
2022-12-22T02:49:02.910Z,22.40
2022-12-22T02:54:26.064Z,19.90
2022-12-22T02:59:46.673Z,22.70
2022-12-22T03:05:07.428Z,18.50
2022-12-22T03:10:28.831Z,21.80
2022-12-22T03:15:49.391Z,23.10
2022-12-22T03:21:10.043Z,24.50
2022-12-22T03:26:11.813Z,22.90
2022-12-22T03:31:13.848Z,25.20
2022-12-22T03:36:15.611Z,25.00
2022-12-22T03:41:35.870Z,29.60
2022-12-22T03:46:37.760Z,30.30
2022-12-22T03:51:45.510Z,30.30
2022-12-22T03:56:48.140Z,25.70
2022-12-22T04:01:53.414Z,25.50
2022-12-22T04:06:55.857Z,37.90
2022-12-22T04:12:16.112Z,30.20
2022-12-22T04:17:17.936Z,32.20
2022-12-22T04:22:19.605Z,31.50
2022-12-22T04:27:21.380Z,26.10
2022-12-22T04:32:23.252Z,30.40
2022-12-22T04:37:25.004Z,34.20
2022-12-22T04:42:26.752Z,31.30
2022-12-22T04:47:28.575Z,32.80
2022-12-22T04:52:30.426Z,35.50
2022-12-22T04:57:38.608Z,34.10
2022-12-22T05:02:42.368Z,33.90
2022-12-22T05:07:44.308Z,40.50
2022-12-22T05:12:55.145Z,32.70
2022-12-22T05:17:58.346Z,30.70
2022-12-22T05:23:00.131Z,32.40
2022-12-22T05:28:01.931Z,37.00
2022-12-22T05:33:03.605Z,33.40
2022-12-22T05:38:05.327Z,29.90
2022-12-22T05:43:07.097Z,32.40
2022-12-22T05:48:08.807Z,39.20
2022-12-22T05:53:10.591Z,33.30
2022-12-22T05:58:12.377Z,32.90
2022-12-22T06:03:14.216Z,28.00
2022-12-22T06:08:16.434Z,34.00
2022-12-22T06:13:18.192Z,33.30
2022-12-22T06:18:19.988Z,31.60
2022-12-22T06:23:22.750Z,30.60
2022-12-22T06:28:24.808Z,28.50
2022-12-22T06:33:26.808Z,30.50
2022-12-22T06:38:28.824Z,38.70
2022-12-22T06:43:30.741Z,30.80
2022-12-22T06:48:32.431Z,34.00
2022-12-22T06:53:34.140Z,31.60
2022-12-22T06:58:35.804Z,31.50
2022-12-22T07:03:37.538Z,33.50
2022-12-22T07:08:39.253Z,24.20
2022-12-22T07:13:41.648Z,31.30
2022-12-22T07:18:43.465Z,22.40
2022-12-22T07:23:45.197Z,20.50
2022-12-22T07:28:47.008Z,21.80
2022-12-22T07:33:48.792Z,24.20
2022-12-22T07:38:52.020Z,25.00
2022-12-22T07:43:55.269Z,27.40
2022-12-22T07:49:16.206Z,22.80
2022-12-22T07:54:18.758Z,25.60
2022-12-22T07:59:20.638Z,23.00
2022-12-22T08:04:22.701Z,28.00
2022-12-22T08:09:24.673Z,27.20
2022-12-22T08:14:26.714Z,22.30
2022-12-22T08:19:28.527Z,23.80
2022-12-22T08:24:30.677Z,24.30
2022-12-22T08:29:38.427Z,18.70
2022-12-22T08:34:40.653Z,20.70
2022-12-22T08:39:46.563Z,17.80
2022-12-22T08:44:53.416Z,19.00
2022-12-22T08:49:55.335Z,16.90
2022-12-22T08:54:57.189Z,15.10
2022-12-22T08:59:59.212Z,18.70
2022-12-22T09:05:00.993Z,15.00
2022-12-22T09:10:02.737Z,18.60
2022-12-22T09:15:06.166Z,21.80
2022-12-22T09:20:08.566Z,19.60
2022-12-22T09:25:10.977Z,21.10
2022-12-22T09:30:13.210Z,24.10
2022-12-22T09:35:14.990Z,29.80
2022-12-22T09:40:16.827Z,21.00
2022-12-22T09:45:21.766Z,22.30
2022-12-22T09:50:26.111Z,19.90
2022-12-22T09:55:43.486Z,18.80
2022-12-22T10:00:51.115Z,17.20
2022-12-22T10:06:17.383Z,16.10
2022-12-22T10:11:19.265Z,17.30
2022-12-22T10:16:27.437Z,16.40
2022-12-22T10:21:29.319Z,15.40
2022-12-22T10:26:34.289Z,16.50
2022-12-22T10:31:56.745Z,17.00
2022-12-22T10:37:01.463Z,15.90
2022-12-22T10:42:14.658Z,17.30
2022-12-22T10:47:24.480Z,17.10
2022-12-22T10:52:32.119Z,16.20
2022-12-22T10:57:34.446Z,12.30
2022-12-22T11:02:38.480Z,11.40
2022-12-22T11:07:42.750Z,13.40
2022-12-22T11:12:59.224Z,13.10
2022-12-22T11:18:14.540Z,12.10
2022-12-22T11:23:41.883Z,14.90
2022-12-22T11:28:49.544Z,15.80
2022-12-22T11:34:09.723Z,16.00
2022-12-22T11:44:45.111Z,20.50
2022-12-22T11:51:01.384Z,20.20
2022-12-22T11:55:43.349Z,18.30
2022-12-22T12:01:19.074Z,22.50
2022-12-22T12:06:34.968Z,22.80
2022-12-22T12:11:53.941Z,17.50
2022-12-22T12:17:03.128Z,22.90
2022-12-22T12:22:08.758Z,22.10
2022-12-22T12:27:41.742Z,24.50
2022-12-22T12:32:55.647Z,23.10
2022-12-22T12:38:06.150Z,25.50
2022-12-22T12:43:16.286Z,25.90
2022-12-22T12:48:24.495Z,27.10
2022-12-22T12:53:28.355Z,26.20
2022-12-22T12:58:39.163Z,27.00
2022-12-22T13:09:39.806Z,28.90
2022-12-22T13:14:57.402Z,50.00
2022-12-22T13:19:59.565Z,28.30
2022-12-22T13:25:04.063Z,35.60
2022-12-22T13:30:11.249Z,39.70
2022-12-22T13:35:37.499Z,20.00
2022-12-22T13:40:44.106Z,22.60
2022-12-22T13:45:52.927Z,20.80
2022-12-22T13:50:58.366Z,18.20
2022-12-22T13:56:00.731Z,20.60
2022-12-22T14:01:10.285Z,16.70
2022-12-22T14:06:39.363Z,14.30
2022-12-22T14:11:51.221Z,15.30
2022-12-22T14:16:57.451Z,18.70
2022-12-22T14:22:04.539Z,16.40
2022-12-22T14:27:12.247Z,17.80
2022-12-22T14:32:39.772Z,16.20
2022-12-22T14:37:41.609Z,16.40
2022-12-22T14:42:44.033Z,16.10
2022-12-22T14:47:45.868Z,17.50
2022-12-22T14:52:51.722Z,18.30
2022-12-22T14:57:59.144Z,22.10
2022-12-22T15:03:06.364Z,19.50
2022-12-22T15:08:38.823Z,17.10
2022-12-22T15:13:41.930Z,20.90
2022-12-22T15:18:44.857Z,21.30
2022-12-22T15:23:47.257Z,22.20
2022-12-22T15:28:49.026Z,19.80
2022-12-22T15:33:50.949Z,24.50
2022-12-22T15:38:52.739Z,20.90
2022-12-22T15:43:57.836Z,19.50
2022-12-22T15:49:01.260Z,18.40
2022-12-22T15:54:04.510Z,18.80
2022-12-22T15:59:06.266Z,18.20
2022-12-22T16:04:08.146Z,19.70
2022-12-22T16:09:27.744Z,23.10
2022-12-22T16:14:35.258Z,21.30
2022-12-22T16:19:40.540Z,21.80
2022-12-22T16:24:45.757Z,20.40
2022-12-22T16:29:52.943Z,20.60
2022-12-22T16:35:13.139Z,21.40
2022-12-22T16:45:28.704Z,18.80
2022-12-22T16:50:33.593Z,19.80
2022-12-22T16:55:36.220Z,16.30
2022-12-22T17:00:40.641Z,21.50
2022-12-22T17:05:46.274Z,21.90
2022-12-22T17:10:49.794Z,17.60
2022-12-22T17:15:51.648Z,22.30
2022-12-22T17:20:58.347Z,23.00
2022-12-22T17:26:03.565Z,24.20
2022-12-22T17:31:06.630Z,19.80
2022-12-22T17:36:18.736Z,19.20
2022-12-22T17:41:20.847Z,28.40
2022-12-22T17:46:22.990Z,28.50
2022-12-22T17:51:28.275Z,24.10
2022-12-22T17:56:30.991Z,25.30
2022-12-22T18:01:33.959Z,20.60
2022-12-22T18:06:38.839Z,24.00
2022-12-22T18:11:45.662Z,28.40
2022-12-22T18:16:48.113Z,29.50
2022-12-22T18:21:50.035Z,26.60
2022-12-22T18:26:51.929Z,29.90
2022-12-22T18:31:53.807Z,28.30
2022-12-22T18:36:55.683Z,25.80
2022-12-22T18:41:58.394Z,25.10
2022-12-22T18:47:00.350Z,22.20
2022-12-22T18:52:04.255Z,23.10
2022-12-22T18:57:13.865Z,21.00
2022-12-22T19:02:23.519Z,21.50
2022-12-22T19:07:26.797Z,20.30
2022-12-22T19:12:28.803Z,18.20
2022-12-22T19:17:30.929Z,19.00
2022-12-22T19:22:32.662Z,22.00
2022-12-22T19:27:34.440Z,25.60
2022-12-22T19:32:42.120Z,23.90
2022-12-22T19:37:46.159Z,24.40
2022-12-22T19:42:51.310Z,19.90
2022-12-22T19:47:54.127Z,26.70
2022-12-22T19:53:00.915Z,25.10
2022-12-22T19:58:03.124Z,24.40
2022-12-22T20:03:06.283Z,24.40
2022-12-22T20:08:08.292Z,23.70
2022-12-22T20:13:17.702Z,23.00
2022-12-22T20:18:22.536Z,23.70
2022-12-22T20:23:25.161Z,25.40
2022-12-22T20:28:31.356Z,20.90
2022-12-22T20:33:34.947Z,19.00
2022-12-22T20:38:41.109Z,25.50
2022-12-22T20:43:42.992Z,21.80
2022-12-22T20:48:50.671Z,24.50
2022-12-22T20:53:53.715Z,26.20
2022-12-22T20:58:56.257Z,25.90
2022-12-22T21:03:58.169Z,24.00
2022-12-22T21:09:01.318Z,23.40
2022-12-22T21:14:03.466Z,24.60
2022-12-22T21:19:05.573Z,23.10
2022-12-22T21:24:07.480Z,24.20
2022-12-22T21:29:16.126Z,27.10
2022-12-22T21:34:18.434Z,20.10
2022-12-22T21:39:33.360Z,25.70
2022-12-22T21:44:35.805Z,25.00
2022-12-22T21:49:37.663Z,26.60
2022-12-22T21:54:39.563Z,26.50
2022-12-22T21:59:41.328Z,25.10
2022-12-22T22:04:46.738Z,28.90
2022-12-22T22:09:53.832Z,26.10
2022-12-22T22:14:56.118Z,23.60
2022-12-22T22:19:58.041Z,26.40
2022-12-22T22:24:59.821Z,26.70
2022-12-22T22:30:01.641Z,24.50
2022-12-22T22:35:05.091Z,27.50
2022-12-22T22:40:11.737Z,21.50
2022-12-22T22:45:15.616Z,28.80
2022-12-22T22:50:19.000Z,22.90
2022-12-22T22:55:20.941Z,25.90
2022-12-22T23:00:22.964Z,21.80
2022-12-22T23:05:24.702Z,20.70
2022-12-22T23:10:26.581Z,21.10
2022-12-22T23:15:28.273Z,20.60
2022-12-22T23:20:29.993Z,18.80
2022-12-22T23:25:31.872Z,22.80
2022-12-22T23:30:33.561Z,23.60
2022-12-22T23:35:37.197Z,21.70
2022-12-22T23:40:55.700Z,20.80
2022-12-22T23:45:57.891Z,26.00
2022-12-22T23:50:59.889Z,23.30
2022-12-22T23:56:01.947Z,25.20
